• Join FlightAware (Why Join?)
  • Login
  • US Flag 
Trick or treat! (Boo!!) 
10:01PM EDT


 

Airport Tracker/Info


-or-


 

Live Flight TrackerFlight Track Log ✈ DAL1283 ✈ 14-Dec-2013 ✈ KATL - KCAK

Flight Track Log - Related Links

Times and Time Zones

All times are in EST time to prevent confusion due to time zone crossing. See the DAL1283 flight status page for this flight to view local times or setup timezone preferences in your user account.

Time Position Orientation Groundspeed Altitude Reporting Facility
EST Latitude Longitude Course Direction KTS MPH feet Rate Location/Type
03:38PM 33.6500 -84.4667 North 179 206 2,800  Level Atlanta TRACON
03:39PM 33.6833 -84.5333 301° West 240 276 4,700 2,520 Climbing Atlanta TRACON
03:40PM 33.7333 -84.5833 320° Northwest 283 326 7,600 2,580 Climbing Atlanta TRACON
03:41PM 34.1467 -84.2373 North  Level Estimated
03:41PM 33.8167 -84.5833 360° North 305 351 9,900  Level Atlanta TRACON
03:42PM 34.2742 -84.1893 11° North  Level Estimated
03:42PM 33.9000 -84.5167 34° Northeast 337 388 12,300  Level Atlanta TRACON
03:43PM 34.4075 -84.1822 North  Level FlightAware Approximate
03:43PM 34.0044 -84.4547 26° Northeast 364 419 14,000  Level Atlanta Center
03:44PM 34.5409 -84.1751 North  Level FlightAware Approximate
03:44PM 34.0900 -84.4000 28° Northeast 374 430 15,200  Level Atlanta Center
03:45PM 34.2133 -84.3250 27° Northeast 409 471 16,900 1,260 Climbing Atlanta Center
03:46PM 34.3347 -84.2678 21° North 441 507 17,800 1,200 Climbing Atlanta Center
03:47PM 34.4703 -84.2378 10° North 482 555 19,400 1,620 Climbing Atlanta Center
03:48PM 34.6103 -84.2003 12° North 505 581 21,100 1,560 Climbing Atlanta Center
03:49PM 34.7333 -84.1753 North 505 581 22,600 1,920 Climbing Atlanta Center
03:50PM 34.8733 -84.1450 10° North 505 581 25,000 1,740 Climbing Atlanta Center
03:51PM 35.0067 -84.1122 11° North 500 575 26,200 1,020 Climbing Atlanta Center
03:52PM 35.1467 -84.0794 11° North 500 575 27,100 780 Climbing Atlanta Center
03:53PM 35.2886 -84.0464 11° North 505 581 27,800 1,020 Climbing Atlanta Center
03:54PM 35.4283 -84.0108 12° North 505 581 29,200 1,080 Climbing Atlanta Center
03:55PM 35.5700 -83.9750 12° North 505 581 30,000 720 Climbing Atlanta Center
03:56PM 35.7119 -83.9417 11° North 505 581 30,700 840 Climbing Atlanta Center
03:57PM 35.8517 -83.9081 11° North 505 581 31,700 720 Climbing Atlanta Center
03:58PM 35.9892 -83.8411 21° North 517 595 32,200 420 Climbing Atlanta Center
03:59PM 36.1247 -83.7533 28° Northeast 530 610 32,600 300 Climbing Atlanta Center
04:01PM 36.3181 -83.6311 27° Northeast 551 634 33,000 120 Climbing Indianapolis Center
04:02PM 36.4553 -83.5436 27° Northeast 555 639 33,000  Level Indianapolis Center
04:03PM 36.5925 -83.4567 27° Northeast 565 650 33,000  Level Indianapolis Center
04:04PM 36.7519 -83.3533 27° Northeast 555 639 33,000  Level Indianapolis Center
04:05PM 36.8897 -83.2653 27° Northeast 550 633 33,000  Level Indianapolis Center
04:06PM 37.0283 -83.1753 27° Northeast 552 635 33,000  Level Indianapolis Center
04:07PM 37.1664 -83.0867 27° Northeast 554 638 33,000  Level Indianapolis Center
04:08PM 37.3019 -82.9983 27° Northeast 545 627 33,000  Level Indianapolis Center
04:09PM 37.4383 -82.9078 28° Northeast 548 631 33,000  Level Indianapolis Center
04:10PM 37.5739 -82.8161 28° Northeast 554 638 33,000  Level Indianapolis Center
04:11PM 37.7100 -82.7272 27° Northeast 550 633 33,000  Level Indianapolis Center
04:12PM 37.8433 -82.6372 28° Northeast 545 627 33,000  Level Indianapolis Center
04:13PM 37.9786 -82.5497 27° Northeast 545 627 33,000  Level Indianapolis Center
04:14PM 38.1111 -82.4731 24° Northeast 541 623 33,000  Level Indianapolis Center
04:15PM 38.2503 -82.4361 12° North 512 589 33,000 -300 Level Indianapolis Center
04:16PM 38.3892 -82.4050 10° North 504 580 32,400 -540 Descending Indianapolis Center
04:17PM 38.5303 -82.3739 10° North 509 586 32,000 -240 Descending Indianapolis Center
04:18PM 38.6717 -82.3422 10° North 511 588 32,000  Level Indianapolis Center
04:19PM 38.8139 -82.3111 10° North 513 590 32,000  Level Indianapolis Center
04:20PM 38.9561 -82.2792 10° North 514 592 32,000  Level Indianapolis Center
04:21PM 39.1258 -82.2433 North 513 590 32,000  Level Indianapolis Center
04:22PM 39.2669 -82.2106 10° North 509 586 32,000 -480 Level Indianapolis Center
04:23PM 39.4053 -82.1800 10° North 503 579 31,100 -1,560 Descending Indianapolis Center
04:24PM 39.5436 -82.1497 10° North 501 577 28,900 -2,580 Descending Indianapolis Center
04:25PM 39.6819 -82.1175 10° North 502 578 25,900 -2,460 Descending Indianapolis Center
04:26PM 39.8156 -82.0856 10° North 488 562 24,000 -2,160 Descending Indianapolis Center
04:27PM 39.9428 -82.0586 North 464 534 21,600 -2,220 Descending Indianapolis Center
04:28PM 40.0728 -82.0261 11° North 450 518 19,600 -2,280 Descending Indianapolis Center
04:29PM 40.1936 -81.9989 10° North 439 505 17,000 -2,640 Descending Indianapolis Center
04:30PM 40.3136 -81.9689 11° North 437 503 14,300 -2,100 Descending Indianapolis Center
04:31PM 40.4283 -81.9425 10° North 422 486 12,800 -1,800 Descending Indianapolis Center
04:32PM 40.5306 -81.8803 25° Northeast 411 473 10,700 -1,380 Descending Indianapolis Center
04:33PM 40.6158 -81.7967 37° Northeast 388 447 10,100 -1,140 Descending Indianapolis Center
04:34PM 40.6811 -81.7319 37° Northeast 313 360 8,400 -1,800 Descending Indianapolis Center
04:35PM 40.7397 -81.6731 37° Northeast 283 326 6,500 -1,860 Descending Indianapolis Center
04:36PM 40.7897 -81.6189 39° Northeast 252 290 4,700 -1,560 Descending Indianapolis Center
04:38PM 40.8436 -81.5453 46° Northeast 238 274 3,100 -1,200 Descending Cleveland Center
04:39PM 40.8764 -81.5000 46° Northeast 193 222 2,100 -840 Descending Cleveland Center
04:40PM 40.9067 -81.4544 49° Northeast 162 186 1,500 -600 Descending Cleveland Center